createdAt,value
2022-09-02T00:01:24.942Z,1.05
2022-09-02T00:03:53.935Z,1.13
2022-09-02T00:06:21.614Z,1.20
2022-09-02T00:08:49.711Z,1.20
2022-09-02T00:11:18.881Z,1.40
2022-09-02T00:13:46.706Z,0.93
2022-09-02T00:16:15.059Z,1.10
2022-09-02T00:18:45.739Z,1.15
2022-09-02T00:21:14.498Z,1.10
2022-09-02T00:23:43.091Z,1.30
2022-09-02T00:26:10.876Z,1.13
2022-09-02T00:28:40.622Z,0.90
2022-09-02T00:31:17.663Z,1.23
2022-09-02T00:33:45.314Z,1.10
2022-09-02T00:36:12.960Z,1.13
2022-09-02T00:38:40.694Z,1.10
2022-09-02T00:41:09.529Z,1.30
2022-09-02T00:43:40.221Z,1.02
2022-09-02T00:46:07.950Z,1.00
2022-09-02T00:48:36.138Z,1.10
2022-09-02T00:51:04.560Z,1.27
2022-09-02T00:53:34.684Z,1.10
2022-09-02T00:56:03.258Z,1.20
2022-09-02T00:58:33.022Z,0.95
2022-09-02T01:01:04.078Z,1.13
2022-09-02T01:03:32.957Z,1.40
2022-09-02T01:06:02.390Z,1.30
2022-09-02T01:08:35.821Z,1.20
2022-09-02T01:11:06.412Z,1.10
2022-09-02T01:13:37.228Z,1.25
2022-09-02T01:16:07.982Z,1.10
2022-09-02T01:18:36.833Z,1.00
2022-09-02T01:21:04.889Z,1.13
2022-09-02T01:23:34.826Z,1.30
2022-09-02T01:26:02.925Z,1.10
2022-09-02T01:28:33.493Z,1.05
2022-09-02T01:31:01.626Z,1.20
2022-09-02T01:33:30.781Z,1.00
2022-09-02T01:35:59.812Z,1.10
2022-09-02T01:38:28.055Z,1.40
2022-09-02T01:40:55.850Z,1.02
2022-09-02T01:43:25.801Z,1.02
2022-09-02T01:45:55.178Z,1.15
2022-09-02T01:48:25.189Z,1.23
2022-09-02T01:50:55.929Z,1.30
2022-09-02T01:53:24.792Z,1.20
2022-09-02T01:55:54.109Z,1.10
2022-09-02T01:58:22.191Z,1.02
2022-09-02T02:00:51.192Z,1.10
2022-09-02T02:03:20.576Z,1.13
2022-09-02T02:05:49.457Z,1.08
2022-09-02T02:08:20.295Z,1.30
2022-09-02T02:10:48.351Z,1.30
2022-09-02T02:13:16.649Z,1.10
2022-09-02T02:15:45.039Z,1.15
2022-09-02T02:18:13.284Z,1.30
2022-09-02T02:20:44.950Z,1.27
2022-09-02T02:23:13.743Z,1.17
2022-09-02T02:25:42.211Z,1.30
2022-09-02T02:28:10.257Z,1.20
2022-09-02T02:30:39.220Z,1.20
2022-09-02T02:33:10.736Z,1.60
2022-09-02T02:35:38.744Z,1.35
2022-09-02T02:38:07.390Z,1.10
2022-09-02T02:40:36.179Z,1.20
2022-09-02T02:43:05.014Z,1.40
2022-09-02T02:45:33.133Z,1.10
2022-09-02T02:48:01.199Z,1.20
2022-09-02T02:50:32.925Z,1.40
2022-09-02T02:53:03.057Z,1.38
2022-09-02T02:55:31.204Z,1.17
2022-09-02T02:57:59.435Z,1.35
2022-09-02T03:00:29.173Z,1.38
2022-09-02T03:02:58.363Z,1.05
2022-09-02T03:05:26.692Z,1.15
2022-09-02T03:07:54.787Z,1.20
2022-09-02T03:10:27.551Z,1.40
2022-09-02T03:12:55.873Z,1.10
2022-09-02T03:15:24.027Z,1.20
2022-09-02T03:17:55.014Z,1.38
2022-09-02T03:20:24.139Z,1.20
2022-09-02T03:22:57.449Z,1.30
2022-09-02T03:25:26.109Z,1.20
2022-09-02T03:27:57.231Z,1.10
2022-09-02T03:30:26.842Z,1.48
2022-09-02T03:33:00.473Z,1.27
2022-09-02T03:35:33.264Z,1.30
2022-09-02T03:38:02.132Z,1.10
2022-09-02T03:40:31.363Z,1.20
2022-09-02T03:43:00.599Z,1.23
2022-09-02T03:45:31.361Z,1.40
2022-09-02T03:48:06.574Z,1.30
2022-09-02T03:50:40.212Z,1.30
2022-09-02T03:53:19.360Z,1.08
2022-09-02T03:55:51.258Z,1.20
2022-09-02T03:58:23.548Z,1.13
2022-09-02T04:00:54.943Z,1.20
2022-09-02T04:03:25.290Z,1.20
2022-09-02T04:05:56.388Z,1.30
2022-09-02T04:08:28.493Z,1.20
2022-09-02T04:11:00.428Z,1.20
2022-09-02T04:13:28.487Z,1.30
2022-09-02T04:16:01.121Z,1.25
2022-09-02T04:18:31.240Z,1.33
2022-09-02T04:21:01.117Z,1.30
2022-09-02T04:23:29.496Z,1.30
2022-09-02T04:25:57.620Z,1.40
2022-09-02T04:28:26.581Z,1.20
2022-09-02T04:30:55.298Z,1.30
2022-09-02T04:33:23.438Z,1.10
2022-09-02T04:35:52.808Z,1.30
2022-09-02T04:38:21.770Z,1.27
2022-09-02T04:40:50.091Z,1.27
2022-09-02T04:43:20.215Z,1.13
2022-09-02T04:45:49.345Z,1.35
2022-09-02T04:48:19.555Z,1.10
2022-09-02T04:50:49.721Z,1.10
2022-09-02T04:53:18.896Z,1.20
2022-09-02T04:55:47.065Z,1.20
2022-09-02T04:58:16.984Z,1.20
2022-09-02T05:00:48.555Z,1.20
2022-09-02T05:03:20.404Z,1.42
2022-09-02T05:05:49.315Z,1.30
2022-09-02T05:08:20.114Z,1.37
2022-09-02T05:10:50.347Z,1.30
2022-09-02T05:13:18.760Z,1.50
2022-09-02T05:15:47.830Z,1.30
2022-09-02T05:18:17.583Z,1.17
2022-09-02T05:20:47.733Z,1.40
2022-09-02T05:23:17.425Z,1.27
2022-09-02T05:25:47.417Z,1.33
2022-09-02T05:28:17.000Z,1.20
2022-09-02T05:30:45.180Z,1.50
2022-09-02T05:33:14.635Z,1.50
2022-09-02T05:35:47.033Z,1.30
2022-09-02T05:38:18.443Z,1.50
2022-09-02T05:40:48.317Z,1.20
2022-09-02T05:43:17.137Z,1.30
2022-09-02T05:45:49.301Z,1.45
2022-09-02T05:48:37.243Z,1.60
2022-09-02T05:51:07.394Z,1.60
2022-09-02T05:53:36.627Z,1.50
2022-09-02T05:56:05.886Z,1.30
2022-09-02T05:58:35.239Z,1.60
2022-09-02T06:01:13.248Z,1.67
2022-09-02T06:03:41.918Z,1.50
2022-09-02T06:06:10.994Z,1.43
2022-09-02T06:08:41.498Z,1.30
2022-09-02T06:11:10.835Z,1.40
2022-09-02T06:13:40.207Z,1.30
2022-09-02T06:16:10.803Z,1.30
2022-09-02T06:18:43.105Z,1.40
2022-09-02T06:21:12.197Z,1.50
2022-09-02T06:23:43.885Z,1.47
2022-09-02T06:26:13.211Z,1.23
2022-09-02T06:28:41.689Z,1.47
2022-09-02T06:31:21.472Z,1.40
2022-09-02T06:33:52.867Z,1.53
2022-09-02T06:36:24.948Z,1.50
2022-09-02T06:38:59.669Z,1.30
2022-09-02T06:41:32.388Z,1.40
2022-09-02T06:44:07.131Z,1.50
2022-09-02T06:46:40.225Z,1.30
2022-09-02T06:49:10.033Z,1.53
2022-09-02T06:51:41.107Z,1.30
2022-09-02T06:54:10.664Z,1.60
2022-09-02T06:56:46.005Z,1.33
2022-09-02T06:59:20.387Z,1.53
2022-09-02T07:01:52.874Z,1.35
2022-09-02T07:04:42.322Z,1.52
2022-09-02T07:07:13.996Z,1.50
2022-09-02T07:09:50.060Z,1.50
2022-09-02T07:12:19.949Z,1.40
2022-09-02T07:15:01.760Z,1.57
2022-09-02T07:17:37.478Z,1.30
2022-09-02T07:20:09.737Z,1.40
2022-09-02T07:22:45.721Z,1.53
2022-09-02T07:25:17.614Z,1.40
2022-09-02T07:27:46.078Z,1.60
2022-09-02T07:30:14.765Z,1.40
2022-09-02T07:32:45.294Z,1.50
2022-09-02T07:35:13.413Z,1.27
2022-09-02T07:37:42.036Z,1.30
2022-09-02T07:40:11.886Z,1.42
2022-09-02T07:42:40.152Z,1.40
2022-09-02T07:45:09.414Z,1.20
2022-09-02T07:47:40.507Z,1.50
2022-09-02T07:50:17.321Z,1.35
2022-09-02T07:52:52.219Z,1.60
2022-09-02T07:55:20.434Z,1.20
2022-09-02T07:57:49.171Z,1.25
2022-09-02T08:00:18.512Z,1.23
2022-09-02T08:02:50.815Z,1.23
2022-09-02T08:05:25.306Z,1.20
2022-09-02T08:07:53.451Z,1.40
2022-09-02T08:10:21.380Z,1.20
2022-09-02T08:12:50.294Z,1.30
2022-09-02T08:15:20.290Z,1.20
2022-09-02T08:17:48.851Z,1.23
2022-09-02T08:20:18.221Z,1.40
2022-09-02T08:22:50.831Z,1.20
2022-09-02T08:25:27.564Z,1.25
2022-09-02T08:30:28.599Z,1.20
2022-09-02T08:32:57.561Z,1.20
2022-09-02T08:35:25.499Z,1.40
2022-09-02T08:37:53.792Z,1.13
2022-09-02T08:40:23.716Z,1.27
2022-09-02T08:42:55.911Z,1.20
2022-09-02T08:45:33.215Z,1.10
2022-09-02T08:48:16.425Z,1.48
2022-09-02T08:50:46.086Z,1.17
2022-09-02T08:53:26.865Z,1.20
2022-09-02T08:55:56.218Z,1.10
2022-09-02T08:58:25.735Z,1.10
2022-09-02T09:01:13.917Z,1.20
2022-09-02T09:04:05.067Z,1.00
2022-09-02T09:06:33.015Z,1.10
2022-09-02T09:09:21.187Z,1.20
2022-09-02T09:12:15.492Z,1.20
2022-09-02T09:14:46.707Z,1.30
2022-09-02T09:17:23.895Z,1.15
2022-09-02T09:19:56.155Z,1.10
2022-09-02T09:22:27.288Z,1.15
2022-09-02T09:24:58.130Z,0.90
2022-09-02T09:27:26.548Z,1.20
2022-09-02T09:29:54.500Z,0.90
2022-09-02T09:32:35.370Z,1.17
2022-09-02T09:35:08.638Z,1.10
2022-09-02T09:37:38.498Z,0.88
2022-09-02T09:40:21.894Z,1.15
2022-09-02T09:42:53.061Z,0.90
2022-09-02T09:45:23.120Z,0.90
2022-09-02T09:48:18.095Z,1.00
2022-09-02T09:50:58.437Z,0.90
2022-09-02T09:53:26.418Z,0.98
2022-09-02T09:55:54.357Z,1.00
2022-09-02T09:58:23.859Z,1.08
2022-09-02T10:00:56.633Z,0.90
2022-09-02T10:03:26.418Z,1.00
2022-09-02T10:06:18.337Z,1.00
2022-09-02T10:08:59.704Z,1.20
2022-09-02T10:11:29.315Z,1.00
2022-09-02T10:14:15.472Z,1.00
2022-09-02T10:16:46.472Z,1.00
2022-09-02T10:19:34.732Z,1.20
2022-09-02T10:22:03.419Z,1.00
2022-09-02T10:24:43.687Z,1.00
2022-09-02T10:27:16.568Z,1.00
2022-09-02T10:29:56.938Z,1.17
2022-09-02T10:32:40.685Z,1.00
2022-09-02T10:35:11.983Z,0.80
2022-09-02T10:37:48.731Z,1.00
2022-09-02T10:40:19.797Z,1.10
2022-09-02T10:42:47.978Z,1.00
2022-09-02T10:45:34.770Z,1.00
2022-09-02T10:48:02.719Z,0.93
2022-09-02T10:50:30.795Z,0.80
2022-09-02T10:53:24.764Z,1.00
2022-09-02T10:56:07.167Z,0.85
2022-09-02T10:58:54.716Z,0.80
2022-09-02T11:01:46.880Z,0.90
2022-09-02T11:04:14.993Z,0.90
2022-09-02T11:07:02.373Z,0.80
2022-09-02T11:09:34.562Z,1.08
2022-09-02T11:12:09.699Z,0.88
2022-09-02T11:14:46.576Z,1.00
2022-09-02T11:17:15.165Z,1.00
2022-09-02T11:19:57.173Z,0.90
2022-09-02T11:22:35.970Z,1.00
2022-09-02T11:25:08.873Z,0.90
2022-09-02T11:27:55.216Z,1.00
2022-09-02T11:30:24.633Z,0.98
2022-09-02T11:33:00.092Z,0.90
2022-09-02T11:35:30.207Z,0.90
2022-09-02T11:37:58.140Z,1.10
2022-09-02T11:40:36.780Z,0.95
2022-09-02T11:43:16.095Z,1.00
2022-09-02T11:45:59.427Z,0.95
2022-09-02T11:48:52.900Z,0.73
2022-09-02T11:51:39.522Z,0.90
2022-09-02T11:54:08.990Z,1.00
2022-09-02T11:56:40.173Z,1.00
2022-09-02T11:59:08.470Z,0.70
2022-09-02T12:01:50.156Z,0.98
2022-09-02T12:07:26.835Z,1.00
2022-09-02T12:09:58.018Z,0.90
2022-09-02T12:12:38.791Z,0.90
2022-09-02T12:15:07.483Z,1.00
2022-09-02T12:17:46.616Z,1.00
2022-09-02T12:20:34.788Z,1.00
2022-09-02T12:23:03.217Z,0.82
2022-09-02T12:25:34.342Z,0.90
2022-09-02T12:28:21.601Z,1.10
2022-09-02T12:31:10.532Z,1.00
2022-09-02T12:33:39.944Z,1.10
2022-09-02T12:36:11.644Z,0.90
2022-09-02T12:38:40.732Z,1.00
2022-09-02T12:41:13.596Z,0.80
2022-09-02T12:43:48.288Z,0.98
2022-09-02T12:46:35.106Z,0.90
2022-09-02T12:49:12.492Z,0.95
2022-09-02T12:51:56.659Z,0.70
2022-09-02T12:54:44.927Z,0.90
2022-09-02T12:57:16.507Z,0.80
2022-09-02T12:59:45.400Z,0.80
2022-09-02T13:02:20.909Z,1.00
2022-09-02T13:04:48.959Z,0.95
2022-09-02T13:07:16.867Z,0.90
2022-09-02T13:09:57.242Z,0.80
2022-09-02T13:12:43.883Z,1.00
2022-09-02T13:15:11.890Z,1.05
2022-09-02T13:17:42.560Z,0.82
2022-09-02T13:20:24.613Z,0.75
2022-09-02T13:22:52.486Z,0.88
2022-09-02T13:25:32.952Z,0.70
2022-09-02T13:28:00.913Z,1.00
2022-09-02T13:30:49.112Z,0.98
2022-09-02T13:33:17.119Z,0.80
2022-09-02T13:35:45.151Z,1.00
2022-09-02T13:38:14.984Z,0.82
2022-09-02T13:40:46.292Z,0.90
2022-09-02T13:43:14.546Z,0.90
2022-09-02T13:45:43.194Z,0.82
2022-09-02T13:48:21.667Z,1.00
2022-09-02T13:50:50.971Z,1.00
2022-09-02T13:53:53.841Z,0.93
2022-09-02T13:56:31.045Z,0.70
2022-09-02T13:58:59.214Z,1.00
2022-09-02T14:01:31.620Z,1.10
2022-09-02T14:04:01.201Z,0.90
2022-09-02T14:06:36.508Z,0.90
2022-09-02T14:09:07.558Z,0.90
2022-09-02T14:11:44.073Z,0.80
2022-09-02T14:14:16.477Z,0.80
2022-09-02T14:16:44.776Z,0.80
2022-09-02T14:19:18.687Z,0.93
2022-09-02T14:21:51.064Z,0.70
2022-09-02T14:24:23.612Z,0.80
2022-09-02T14:26:53.230Z,0.88
2022-09-02T14:29:22.005Z,0.95
2022-09-02T14:32:07.393Z,0.95
2022-09-02T14:34:39.996Z,0.88
2022-09-02T14:37:25.333Z,0.90
2022-09-02T14:39:54.236Z,0.90
2022-09-02T14:42:22.330Z,0.90
2022-09-02T14:44:55.440Z,0.90
2022-09-02T14:47:24.770Z,0.90
2022-09-02T14:49:55.809Z,1.00
2022-09-02T14:52:27.939Z,0.90
2022-09-02T14:54:57.233Z,0.90
2022-09-02T14:57:35.966Z,1.00
2022-09-02T15:00:09.817Z,0.90
2022-09-02T15:02:40.821Z,0.80
2022-09-02T15:05:10.629Z,0.90
2022-09-02T15:07:38.618Z,0.90
2022-09-02T15:10:09.462Z,1.00
2022-09-02T15:12:56.336Z,1.00
2022-09-02T15:15:24.901Z,0.80
2022-09-02T15:17:52.905Z,0.85
2022-09-02T15:20:22.127Z,0.90
2022-09-02T15:22:52.785Z,0.80
2022-09-02T15:25:21.278Z,0.80
2022-09-02T15:27:49.288Z,0.90
2022-09-02T15:30:17.643Z,0.85
2022-09-02T15:32:45.750Z,0.90
2022-09-02T15:35:13.757Z,0.93
2022-09-02T15:37:41.859Z,0.90
2022-09-02T15:40:10.379Z,0.80
2022-09-02T15:42:39.075Z,0.85
2022-09-02T15:45:11.481Z,0.90
2022-09-02T15:47:39.600Z,0.90
2022-09-02T15:50:07.983Z,0.90
2022-09-02T15:52:36.949Z,0.80
2022-09-02T15:55:04.898Z,0.80
2022-09-02T15:57:32.947Z,0.98
2022-09-02T16:00:00.948Z,1.08
2022-09-02T16:02:29.138Z,0.90
2022-09-02T16:04:57.334Z,0.88
2022-09-02T16:07:25.348Z,1.00
2022-09-02T16:09:53.267Z,0.90
2022-09-02T16:12:21.358Z,0.90
2022-09-02T16:14:51.386Z,0.90
2022-09-02T16:17:20.404Z,1.00
2022-09-02T16:19:48.324Z,0.90
2022-09-02T16:22:16.336Z,1.00
2022-09-02T16:24:44.331Z,1.00
2022-09-02T16:27:12.502Z,0.90
2022-09-02T16:29:42.396Z,1.00
2022-09-02T16:32:27.475Z,0.82
2022-09-02T16:34:58.535Z,1.00
2022-09-02T16:37:26.504Z,1.30
2022-09-02T16:39:54.510Z,1.20
2022-09-02T16:42:22.522Z,0.90
2022-09-02T16:44:53.094Z,0.90
2022-09-02T16:47:21.036Z,1.10
2022-09-02T16:49:49.246Z,0.95
2022-09-02T16:52:17.198Z,1.10
2022-09-02T16:54:45.143Z,1.05
2022-09-02T16:57:13.480Z,1.00
2022-09-02T16:59:41.427Z,1.00
2022-09-02T17:02:09.483Z,0.93
2022-09-02T17:04:37.524Z,0.88
2022-09-02T17:07:05.698Z,1.10
2022-09-02T17:09:33.662Z,0.90
2022-09-02T17:12:01.919Z,0.93
2022-09-02T17:14:29.962Z,1.10
2022-09-02T17:16:58.032Z,1.00
2022-09-02T17:19:31.374Z,1.10
2022-09-02T17:22:00.375Z,1.10
2022-09-02T17:24:30.999Z,1.02
2022-09-02T17:27:00.671Z,1.20
2022-09-02T17:32:18.485Z,1.00
2022-09-02T17:34:46.973Z,1.15
2022-09-02T17:37:14.895Z,0.90
2022-09-02T17:39:43.002Z,1.00
2022-09-02T17:42:11.107Z,1.00
2022-09-02T17:44:40.530Z,1.00
2022-09-02T17:47:10.054Z,0.90
2022-09-02T17:49:38.975Z,1.00
2022-09-02T17:52:08.216Z,1.00
2022-09-02T17:54:36.752Z,1.00
2022-09-02T17:57:20.145Z,1.02
2022-09-02T18:00:02.984Z,1.15
2022-09-02T18:02:35.711Z,0.90
2022-09-02T18:05:22.495Z,1.20
2022-09-02T18:08:15.102Z,0.90
2022-09-02T18:11:04.842Z,1.10
2022-09-02T18:13:42.226Z,1.00
2022-09-02T18:16:26.384Z,1.10
2022-09-02T18:19:13.957Z,0.90
2022-09-02T18:21:54.525Z,0.90
2022-09-02T18:24:34.405Z,1.00
2022-09-02T18:27:18.014Z,1.00
2022-09-02T18:29:46.190Z,1.02
2022-09-02T18:32:40.408Z,0.95
2022-09-02T18:35:11.435Z,1.20
2022-09-02T18:37:46.267Z,1.00
2022-09-02T18:40:32.638Z,1.10
2022-09-02T18:43:20.125Z,0.90
2022-09-02T18:45:49.592Z,1.10
2022-09-02T18:48:23.524Z,0.90
2022-09-02T18:50:54.632Z,1.00
2022-09-02T18:53:24.008Z,1.08
2022-09-02T18:55:53.148Z,1.00
2022-09-02T18:58:34.926Z,1.00
2022-09-02T19:01:10.469Z,1.10
2022-09-02T19:03:38.948Z,1.00
2022-09-02T19:06:08.715Z,0.90
2022-09-02T19:08:38.541Z,1.00
2022-09-02T19:11:07.541Z,1.00
2022-09-02T19:14:01.184Z,1.00
2022-09-02T19:16:33.561Z,1.00
2022-09-02T19:19:01.910Z,1.00
2022-09-02T19:21:41.230Z,0.90
2022-09-02T19:24:11.454Z,1.08
2022-09-02T19:26:39.538Z,1.02
2022-09-02T19:29:08.515Z,1.20
2022-09-02T19:31:40.195Z,0.90
2022-09-02T19:34:08.616Z,0.90
2022-09-02T19:36:39.323Z,1.00
2022-09-02T19:39:08.509Z,0.95
2022-09-02T19:41:36.504Z,1.00
2022-09-02T19:44:04.535Z,0.90
2022-09-02T19:47:12.207Z,1.00
2022-09-02T19:49:20.644Z,0.90
2022-09-02T19:51:49.181Z,1.00
2022-09-02T19:54:21.743Z,0.82
2022-09-02T19:56:49.811Z,1.00
2022-09-02T19:59:17.730Z,1.00
2022-09-02T20:01:45.836Z,1.10
2022-09-02T20:04:13.870Z,1.00
2022-09-02T20:06:41.953Z,1.00
2022-09-02T20:09:09.900Z,0.95
2022-09-02T20:11:41.029Z,1.00
2022-09-02T20:14:09.199Z,0.90
2022-09-02T20:16:37.442Z,0.90
2022-09-02T20:19:05.490Z,1.05
2022-09-02T20:21:37.835Z,1.00
2022-09-02T20:24:08.509Z,0.93
2022-09-02T20:26:42.055Z,1.00
2022-09-02T20:29:26.283Z,1.05
2022-09-02T20:31:54.394Z,0.75
2022-09-02T20:34:28.480Z,1.00
2022-09-02T20:36:56.444Z,1.00
2022-09-02T20:39:43.779Z,0.90
2022-09-02T20:42:15.320Z,1.10
2022-09-02T20:44:43.578Z,1.02
2022-09-02T20:47:38.120Z,1.00
2022-09-02T20:50:21.913Z,0.90
2022-09-02T20:53:13.365Z,1.20
2022-09-02T20:55:50.819Z,0.90
2022-09-02T20:58:19.606Z,1.00
2022-09-02T21:00:59.405Z,1.00
2022-09-02T21:03:28.623Z,1.00
2022-09-02T21:05:58.680Z,0.90
2022-09-02T21:08:35.873Z,0.95
2022-09-02T21:11:11.600Z,1.10
2022-09-02T21:13:45.576Z,1.02
2022-09-02T21:16:19.779Z,1.00
2022-09-02T21:18:52.817Z,1.10
2022-09-02T21:21:40.166Z,1.20
2022-09-02T21:24:15.511Z,1.20
2022-09-02T21:26:50.327Z,0.82
2022-09-02T21:29:38.832Z,1.10
2022-09-02T21:32:10.427Z,1.00
2022-09-02T21:34:45.208Z,0.93
2022-09-02T21:37:14.535Z,1.08
2022-09-02T21:39:44.718Z,1.00
2022-09-02T21:42:28.011Z,1.30
2022-09-02T21:45:06.536Z,1.23
2022-09-02T21:47:57.945Z,0.93
2022-09-02T21:50:38.197Z,1.10
2022-09-02T21:53:25.037Z,1.20
2022-09-02T21:55:59.726Z,1.00
2022-09-02T21:58:37.105Z,1.02
2022-09-02T22:01:23.971Z,1.10
2022-09-02T22:03:57.655Z,1.00
2022-09-02T22:06:47.020Z,1.10
2022-09-02T22:09:18.042Z,1.08
2022-09-02T22:11:54.581Z,1.00
2022-09-02T22:14:35.816Z,1.10
2022-09-02T22:17:06.092Z,0.98
2022-09-02T22:19:35.575Z,1.00
2022-09-02T22:22:15.233Z,1.00
2022-09-02T22:24:45.076Z,1.20
2022-09-02T22:27:18.277Z,1.00
2022-09-02T22:29:51.610Z,0.98
2022-09-02T22:32:24.451Z,1.05
2022-09-02T22:35:00.705Z,1.05
2022-09-02T22:37:39.514Z,1.10
2022-09-02T22:40:10.627Z,0.90
2022-09-02T22:42:41.031Z,0.90
2022-09-02T22:45:34.348Z,1.10
2022-09-02T22:48:40.993Z,1.00
2022-09-02T22:51:40.039Z,1.02
2022-09-02T22:54:08.149Z,1.10
2022-09-02T22:56:42.446Z,1.05
2022-09-02T22:59:29.586Z,1.02
2022-09-02T23:02:20.921Z,1.00
2022-09-02T23:04:57.619Z,1.00
2022-09-02T23:07:25.656Z,1.10
2022-09-02T23:09:58.623Z,1.15
2022-09-02T23:12:47.521Z,1.10
2022-09-02T23:15:31.663Z,1.10
2022-09-02T23:18:01.816Z,1.30
2022-09-02T23:20:45.576Z,1.10
2022-09-02T23:23:13.548Z,1.13
2022-09-02T23:25:41.515Z,1.10
2022-09-02T23:28:17.278Z,1.20
2022-09-02T23:31:08.864Z,1.20
2022-09-02T23:33:37.006Z,1.15
2022-09-02T23:36:05.590Z,1.10
2022-09-02T23:38:33.476Z,1.20
2022-09-02T23:41:12.068Z,1.20
2022-09-02T23:43:41.687Z,0.98
2022-09-02T23:46:17.906Z,1.10
2022-09-02T23:48:56.708Z,1.10
2022-09-02T23:51:36.094Z,1.10
2022-09-02T23:54:19.451Z,1.17
2022-09-02T23:57:14.446Z,1.20
2022-09-02T23:59:42.771Z,1.00
